Time;durP1;ratioP1;P1;durP2;ratioP2;P2;SDS_P1;SDS_P2;PMS_P1;PMS_P2;Temp;Humidity;BMP_temperature;BMP_pressure;BME280_temperature;BME280_humidity;BME280_pressure;Samples;Min_cycle;Max_cycle;Signal;HPM_P1;HPM_P2
2022/03/14 00:00:13;;;;;;;;;3.75;2.50;;;;;9.17;82.02;101513.88;5074920;27;45678;-69
2022/03/14 00:02:39;;;;;;;;;3.75;3.25;;;;;9.21;82.46;101502.63;5073819;27;45516;-68
2022/03/14 00:05:05;;;;;;;;;3.00;3.00;;;;;9.28;81.87;101514.63;5076577;27;45408;-68
2022/03/14 00:07:34;;;;;;;;;2.50;2.50;;;;;9.28;81.45;101521.56;5076976;27;45425;-71
2022/03/14 00:10:00;;;;;;;;;3.25;1.75;;;;;9.31;81.54;101522.38;5076252;28;45884;-72
2022/03/14 00:12:26;;;;;;;;;5.75;1.50;;;;;9.31;81.63;101517.19;5078350;27;45477;-69
2022/03/14 00:14:55;;;;;;;;;6.25;3.00;;;;;9.36;81.37;101522.34;5078534;27;45383;-72
2022/03/14 00:17:21;;;;;;;;;2.25;2.25;;;;;9.37;80.85;101526.66;5076101;28;47561;-70
2022/03/14 00:19:47;;;;;;;;;3.00;2.50;;;;;9.39;80.91;101525.75;5078538;27;45439;-69
2022/03/14 00:22:15;;;;;;;;;2.00;0.50;;;;;9.40;81.30;101542.16;5078385;27;45404;-69
2022/03/14 00:24:40;;;;;;;;;2.00;2.00;;;;;9.44;81.13;101555.13;5076960;28;45774;-70
2022/03/14 00:27:07;;;;;;;;;2.00;1.75;;;;;9.48;80.53;101555.94;5077954;27;45350;-68
2022/03/14 00:29:32;;;;;;;;;4.25;2.50;;;;;9.49;80.54;101574.97;5078502;27;45318;-69
2022/03/14 00:32:00;;;;;;;;;4.25;1.50;;;;;9.48;80.22;101571.50;5077819;27;45314;-68
2022/03/14 00:34:25;;;;;;;;;5.75;2.75;;;;;9.45;80.56;101577.59;5077770;27;45370;-67
2022/03/14 00:36:50;;;;;;;;;4.25;2.25;;;;;9.45;79.83;101585.38;5075644;27;46114;-66
2022/03/14 00:39:16;;;;;;;;;4.25;3.00;;;;;9.43;79.84;101607.03;5077481;27;45240;-66
2022/03/14 00:41:41;;;;;;;;;6.00;4.00;;;;;9.39;80.43;101597.53;5077927;28;45995;-66
2022/03/14 00:44:06;;;;;;;;;2.25;1.75;;;;;9.38;80.16;101601.84;5078197;27;45226;-72
2022/03/14 00:46:32;;;;;;;;;1.75;1.75;;;;;9.33;80.62;101601.03;5076892;28;46082;-73
2022/03/14 00:48:57;;;;;;;;;3.25;1.75;;;;;9.29;80.53;101608.88;5078355;27;45663;-72
2022/03/14 00:51:23;;;;;;;;;2.00;2.00;;;;;9.30;80.35;101618.38;5074709;28;45614;-67
2022/03/14 00:53:48;;;;;;;;;4.00;2.50;;;;;9.31;80.53;101625.28;5075706;27;45856;-67
2022/03/14 00:56:13;;;;;;;;;3.75;1.00;;;;;9.31;80.53;101636.50;5075457;27;45810;-67
2022/03/14 00:58:39;;;;;;;;;2.75;2.75;;;;;9.28;80.27;101625.31;5078014;28;45594;-68
2022/03/14 01:01:05;;;;;;;;;4.75;2.00;;;;;9.34;80.47;101633.88;5079994;27;45486;-67
2022/03/14 01:03:35;;;;;;;;;2.00;2.00;;;;;9.38;79.94;101643.38;5080324;27;45656;-66
2022/03/14 01:06:01;;;;;;;;;2.00;2.00;;;;;9.42;80.39;101650.28;5081758;27;46123;-65
2022/03/14 01:08:26;;;;;;;;;2.50;2.50;;;;;9.40;79.92;101640.75;5082693;27;45362;-66
2022/03/14 01:10:51;;;;;;;;;1.00;1.00;;;;;9.43;79.61;101652.00;5082536;27;45323;-66
2022/03/14 01:13:17;;;;;;;;;1.25;1.25;;;;;9.41;79.58;101645.97;5083022;27;45215;-68
2022/03/14 01:15:43;;;;;;;;;4.75;2.00;;;;;9.42;80.07;101655.47;5082306;27;45270;-68
2022/03/14 01:18:09;;;;;;;;;1.50;1.50;;;;;9.42;79.88;101660.66;5081463;28;45409;-68
2022/03/14 01:20:34;;;;;;;;;3.25;3.00;;;;;9.41;80.03;101664.13;5082605;27;45279;-68
2022/03/14 01:22:59;;;;;;;;;3.00;1.75;;;;;9.45;79.76;101665.81;5082349;27;45351;-68
2022/03/14 01:25:25;;;;;;;;;3.75;2.00;;;;;9.46;79.61;101682.25;5081787;27;45896;-67
2022/03/14 01:27:51;;;;;;;;;7.00;3.00;;;;;9.45;79.83;101678.78;5082559;27;45460;-66
2022/03/14 01:30:19;;;;;;;;;5.00;1.25;;;;;9.47;79.11;101691.75;5082517;27;45318;-67
2022/03/14 01:32:45;;;;;;;;;1.00;1.00;;;;;9.47;79.30;101693.47;5082114;27;45367;-68
2022/03/14 01:35:10;;;;;;;;;4.50;3.75;;;;;9.47;79.63;101693.47;5082088;27;46514;-65
2022/03/14 01:37:36;;;;;;;;;1.00;1.00;;;;;9.50;79.16;101691.72;5082134;27;45234;-65
2022/03/14 01:40:01;;;;;;;;;1.25;1.25;;;;;9.53;78.74;101704.66;5082072;27;45229;-66
2022/03/14 01:42:26;;;;;;;;;2.50;1.25;;;;;9.56;79.12;101704.63;5082508;27;45230;-68
2022/03/14 01:44:52;;;;;;;;;2.00;1.00;;;;;9.57;78.87;101711.53;5082008;27;45286;-67
2022/03/14 01:47:18;;;;;;;;;2.00;2.00;;;;;9.59;78.65;101701.16;5082022;28;45253;-68
2022/03/14 01:49:48;;;;;;;;;4.50;1.00;;;;;9.60;79.16;101698.53;5079283;27;45245;-67
2022/03/14 01:52:14;;;;;;;;;3.25;1.25;;;;;9.63;78.43;101701.13;5080068;28;45395;-67
2022/03/14 01:54:43;;;;;;;;;3.50;3.50;;;;;9.64;78.36;101708.03;5081130;27;46076;-66
2022/03/14 01:57:08;;;;;;;;;3.75;2.25;;;;;9.65;78.23;101708.91;5074627;27;45793;-68
2022/03/14 01:59:37;;;;;;;;;2.75;0.00;;;;;9.67;78.31;101712.34;5081914;27;45430;-65
2022/03/14 02:02:03;;;;;;;;;3.00;1.50;;;;;9.66;78.49;101711.50;5082119;27;45489;-65
2022/03/14 02:04:28;;;;;;;;;2.00;2.00;;;;;9.64;78.76;101712.38;5081842;27;45729;-64
2022/03/14 02:06:55;;;;;;;;;4.25;1.00;;;;;9.62;78.70;101719.31;5081850;27;45262;-68
2022/03/14 02:09:20;;;;;;;;;2.00;2.00;;;;;9.57;78.37;101719.31;5081568;27;45248;-68
2022/03/14 02:11:52;;;;;;;;;1.00;0.00;;;;;9.52;78.24;101712.47;5081635;27;45249;-68
2022/03/14 02:14:18;;;;;;;;;2.50;1.00;;;;;9.50;78.62;101722.84;5068761;27;46253;-68
2022/03/14 02:16:43;;;;;;;;;2.75;1.00;;;;;9.46;78.05;101718.56;5081714;28;45299;-68
2022/03/14 02:19:09;;;;;;;;;2.00;0.50;;;;;9.41;78.41;101721.19;5082034;27;45421;-68
2022/03/14 02:21:34;;;;;;;;;3.00;2.00;;;;;9.36;78.33;101722.06;5081453;27;45184;-68
2022/03/14 02:24:01;;;;;;;;;2.00;2.00;;;;;9.30;78.94;101723.00;5080244;27;47202;-68
2022/03/14 02:26:26;;;;;;;;;4.50;2.50;;;;;9.27;78.92;101723.00;5081357;27;45266;-68
2022/03/14 02:28:52;;;;;;;;;2.50;1.75;;;;;9.21;78.92;101720.47;5081652;27;45160;-68
2022/03/14 02:31:17;;;;;;;;;1.50;1.50;;;;;9.19;78.83;101722.19;5081743;27;45435;-69
2022/03/14 02:33:42;;;;;;;;;1.00;1.00;;;;;9.17;78.49;101715.28;5080955;27;46957;-68
2022/03/14 02:36:08;;;;;;;;;3.50;2.00;;;;;9.14;79.29;101717.03;5080252;28;45951;-70
2022/03/14 02:38:33;;;;;;;;;3.00;3.00;;;;;9.14;79.23;101724.81;5081234;27;45318;-71
2022/03/14 02:40:59;;;;;;;;;1.00;1.00;;;;;9.11;78.95;101731.75;5081418;27;45436;-71
2022/03/14 02:43:24;;;;;;;;;1.50;1.00;;;;;9.07;79.60;101730.91;5081088;27;45473;-71
2022/03/14 02:45:51;;;;;;;;;6.50;1.25;;;;;9.06;79.64;101734.38;5081566;27;45322;-71
2022/03/14 02:48:17;;;;;;;;;3.25;2.00;;;;;9.03;79.56;101743.91;5081314;27;45412;-71
2022/03/14 02:50:43;;;;;;;;;2.50;1.00;;;;;8.99;79.83;101747.34;5081352;27;45272;-67
2022/03/14 02:53:13;;;;;;;;;2.00;1.00;;;;;8.95;79.89;101748.25;5079343;27;47979;-70
2022/03/14 02:55:39;;;;;;;;;2.00;2.00;;;;;8.97;79.70;101754.28;5081268;27;45683;-68
2022/03/14 02:58:05;;;;;;;;;2.00;2.00;;;;;8.95;79.92;101763.81;5081260;27;45346;-68
2022/03/14 03:00:30;;;;;;;;;6.00;2.50;;;;;8.92;80.44;101771.59;5080855;27;45511;-66
2022/03/14 03:02:56;;;;;;;;;2.50;1.75;;;;;8.85;80.65;101770.75;5080965;28;45353;-66
2022/03/14 03:05:22;;;;;;;;;3.00;1.00;;;;;8.80;80.37;101767.31;5081007;27;45338;-68
2022/03/14 03:07:48;;;;;;;;;6.75;1.25;;;;;8.79;80.92;101784.59;5080849;27;45319;-68
2022/03/14 03:10:16;;;;;;;;;2.00;2.00;;;;;8.75;81.27;101784.59;5080781;27;45452;-68
2022/03/14 03:12:42;;;;;;;;;7.75;4.50;;;;;8.76;81.07;101796.69;5080476;27;46143;-68
2022/03/14 03:15:08;;;;;;;;;2.50;2.50;;;;;8.75;81.82;101800.16;5080900;27;45210;-68
2022/03/14 03:17:34;;;;;;;;;3.00;3.00;;;;;8.73;81.53;101801.91;5080852;27;45310;-66
2022/03/14 03:19:59;;;;;;;;;4.50;2.00;;;;;8.71;81.82;101817.44;5080792;27;45303;-66
2022/03/14 03:22:28;;;;;;;;;1.75;1.50;;;;;8.70;82.01;101817.47;5079930;27;45283;-66
2022/03/14 03:24:53;;;;;;;;;1.75;1.75;;;;;8.69;82.10;101819.19;5080401;27;45329;-69
2022/03/14 03:27:19;;;;;;;;;5.00;1.50;;;;;8.70;81.78;101827.81;5080441;27;45417;-69
2022/03/14 03:29:44;;;;;;;;;5.25;3.00;;;;;8.68;81.80;101827.84;5080753;27;45216;-68
2022/03/14 03:32:10;;;;;;;;;5.50;3.00;;;;;8.70;82.49;101836.47;5073694;27;45254;-68
2022/03/14 03:34:35;;;;;;;;;6.00;1.75;;;;;8.73;82.58;101843.34;5080684;28;45171;-68
2022/03/14 03:37:01;;;;;;;;;2.25;2.25;;;;;8.70;81.95;101833.88;5080336;27;45375;-68
2022/03/14 03:39:26;;;;;;;;;2.00;2.00;;;;;8.73;82.28;101849.41;5080496;27;45492;-68
2022/03/14 03:41:52;;;;;;;;;3.50;2.00;;;;;8.71;81.70;101842.50;5080125;27;45374;-66
2022/03/14 03:44:17;;;;;;;;;6.25;2.00;;;;;8.71;82.03;101850.28;5080373;27;45365;-70
2022/03/14 03:46:42;;;;;;;;;6.00;4.00;;;;;8.71;82.11;101853.72;5078917;27;45425;-69
2022/03/14 03:49:08;;;;;;;;;3.25;2.00;;;;;8.70;81.71;101856.34;5080474;27;45425;-71
2022/03/14 03:51:33;;;;;;;;;3.50;2.00;;;;;8.71;82.29;101866.69;5078412;28;47081;-71
2022/03/14 03:53:58;;;;;;;;;2.00;2.00;;;;;8.71;82.01;101865.81;5080153;27;45489;-71
2022/03/14 03:56:24;;;;;;;;;3.50;2.75;;;;;8.68;82.13;101860.66;5080265;27;45356;-72
2022/03/14 03:58:49;;;;;;;;;4.50;4.00;;;;;8.67;81.70;101858.94;5079989;27;45394;-70
2022/03/14 04:01:22;;;;;;;;;2.25;2.00;;;;;8.63;81.88;101865.84;5074695;27;46064;-70
2022/03/14 04:03:53;;;;;;;;;3.00;1.00;;;;;8.63;82.14;101873.63;5080072;27;45284;-72
2022/03/14 04:06:20;;;;;;;;;5.75;2.50;;;;;8.63;82.00;101877.94;5067540;28;45313;-72
2022/03/14 04:08:46;;;;;;;;;4.50;1.75;;;;;8.63;82.00;101889.19;5079607;27;45519;-72
2022/03/14 04:11:12;;;;;;;;;2.25;2.00;;;;;8.59;81.96;101890.03;5079970;27;45251;-74
2022/03/14 04:13:37;;;;;;;;;7.00;3.00;;;;;8.60;81.84;101893.47;5079781;27;45224;-69
2022/03/14 04:16:03;;;;;;;;;4.25;3.50;;;;;8.59;81.89;101894.34;5078874;28;45437;-73
2022/03/14 04:18:28;;;;;;;;;5.00;2.00;;;;;8.58;82.28;101901.25;5079882;27;45228;-72
2022/03/14 04:20:54;;;;;;;;;2.75;1.75;;;;;8.56;81.95;101902.97;5079897;27;46647;-70
2022/03/14 04:23:19;;;;;;;;;8.75;2.00;;;;;8.56;82.20;101907.28;5079574;27;45326;-70
2022/03/14 04:25:46;;;;;;;;;7.00;5.00;;;;;8.53;81.70;101916.81;5079433;28;45491;-70
2022/03/14 04:28:12;;;;;;;;;7.00;2.25;;;;;8.52;81.77;101911.63;5079976;28;45343;-68
2022/03/14 04:30:38;;;;;;;;;3.00;2.25;;;;;8.50;82.29;101910.75;5079700;27;45272;-68
2022/03/14 04:33:03;;;;;;;;;5.75;3.00;;;;;8.52;82.32;101917.66;5080418;28;45311;-66
2022/03/14 04:35:29;;;;;;;;;3.00;2.00;;;;;8.54;81.85;101918.53;5083292;27;45265;-66
2022/03/14 04:37:55;;;;;;;;;3.25;2.00;;;;;8.51;81.59;101918.53;5082081;27;45566;-68
2022/03/14 04:40:20;;;;;;;;;7.50;2.00;;;;;8.51;82.23;101931.47;5082245;27;45934;-67
2022/03/14 04:42:46;;;;;;;;;3.00;2.00;;;;;8.50;82.29;101932.34;5082653;27;45314;-64
2022/03/14 04:45:12;;;;;;;;;4.75;2.75;;;;;8.52;81.82;101950.47;5080815;27;46035;-66
2022/03/14 04:47:38;;;;;;;;;5.00;5.00;;;;;8.50;81.93;101944.44;5080128;27;45555;-65
2022/03/14 04:50:04;;;;;;;;;2.25;1.75;;;;;8.47;82.13;101966.03;5079816;27;46161;-65
2022/03/14 04:52:30;;;;;;;;;3.00;2.50;;;;;8.45;81.77;101962.59;5080419;27;45347;-61
2022/03/14 04:54:56;;;;;;;;;6.75;4.00;;;;;8.42;81.69;101961.72;5080496;27;46093;-63
2022/03/14 04:57:22;;;;;;;;;2.50;2.00;;;;;8.39;81.99;101961.69;5080676;27;45432;-62
2022/03/14 04:59:47;;;;;;;;;7.25;1.50;;;;;8.37;81.74;101963.41;5097058;27;48279;-61
2022/03/14 05:02:13;;;;;;;;;4.00;2.00;;;;;8.38;81.93;101970.31;5082665;27;45307;-66
2022/03/14 05:04:38;;;;;;;;;6.50;1.75;;;;;8.35;81.99;101978.09;5082317;27;45417;-64
2022/03/14 05:07:06;;;;;;;;;5.50;3.00;;;;;8.30;82.15;101967.69;5080683;27;45265;-65
2022/03/14 05:09:31;;;;;;;;;2.75;2.25;;;;;8.33;82.23;101979.78;5090641;27;47624;-63
2022/03/14 05:11:56;;;;;;;;;7.50;5.00;;;;;8.32;81.80;101981.50;5082573;27;45368;-64
2022/03/14 05:14:22;;;;;;;;;4.00;2.50;;;;;8.31;81.64;101982.38;5082923;27;45265;-64
2022/03/14 05:16:47;;;;;;;;;3.00;3.00;;;;;8.30;81.75;101984.97;5082564;27;45427;-61
2022/03/14 05:19:13;;;;;;;;;8.75;5.00;;;;;8.24;82.29;101991.88;5081395;27;48097;-63
2022/03/14 05:21:38;;;;;;;;;4.00;2.75;;;;;8.23;82.30;101995.31;5082351;27;45237;-62
2022/03/14 05:24:05;;;;;;;;;4.25;2.00;;;;;8.22;82.16;102003.97;5082562;27;45316;-62
2022/03/14 05:26:31;;;;;;;;;5.00;2.75;;;;;8.20;81.50;102007.38;5082162;27;45315;-62
2022/03/14 05:28:57;;;;;;;;;6.00;2.00;;;;;8.17;81.89;102005.66;5082211;27;45419;-62
2022/03/14 05:31:23;;;;;;;;;3.75;3.50;;;;;8.15;82.32;102022.03;5082379;27;45833;-61
2022/03/14 05:33:48;;;;;;;;;9.50;3.50;;;;;8.11;82.14;102016.00;5082057;27;45294;-62
2022/03/14 05:36:14;;;;;;;;;3.25;2.75;;;;;8.07;82.23;102009.09;5082298;27;45308;-63
2022/03/14 05:38:40;;;;;;;;;7.00;5.00;;;;;8.02;82.17;102023.75;5081801;27;46130;-62
2022/03/14 05:41:05;;;;;;;;;5.00;5.00;;;;;8.01;82.07;102024.59;5082365;28;45157;-62
2022/03/14 05:43:36;;;;;;;;;3.00;2.00;;;;;7.97;82.42;102017.66;5081817;27;45250;-62
2022/03/14 05:46:05;;;;;;;;;6.00;3.00;;;;;7.93;82.28;102023.69;5082290;27;45341;-63
2022/03/14 05:48:35;;;;;;;;;6.50;5.25;;;;;7.93;82.76;102024.56;5069153;28;45416;-61
2022/03/14 05:51:02;;;;;;;;;5.50;5.00;;;;;7.92;82.70;102033.19;5081891;27;45426;-63
2022/03/14 05:53:28;;;;;;;;;2.50;2.50;;;;;7.92;82.28;102027.13;5082105;27;45369;-64
2022/03/14 05:55:53;;;;;;;;;7.50;5.25;;;;;7.93;82.55;102037.50;5081607;27;45463;-61
2022/03/14 05:58:19;;;;;;;;;6.00;6.00;;;;;7.93;82.50;102039.22;5081926;27;46183;-62
2022/03/14 06:00:44;;;;;;;;;9.75;2.75;;;;;7.91;82.71;102048.72;5081607;27;45493;-62
2022/03/14 06:03:09;;;;;;;;;9.00;3.50;;;;;7.92;82.70;102047.84;5082128;27;45432;-67
2022/03/14 06:05:35;;;;;;;;;6.50;3.50;;;;;7.92;82.94;102059.06;5081912;27;45222;-61
2022/03/14 06:08:00;;;;;;;;;7.00;5.75;;;;;7.91;82.79;102059.06;5081571;27;46139;-62
2022/03/14 06:10:27;;;;;;;;;6.00;4.50;;;;;7.91;82.63;102070.28;5081540;27;45292;-63
2022/03/14 06:12:52;;;;;;;;;6.75;6.00;;;;;7.87;82.76;102062.50;5081444;27;45302;-61
2022/03/14 06:15:18;;;;;;;;;9.25;6.00;;;;;7.91;82.83;102077.19;5081427;27;45314;-62
2022/03/14 06:17:44;;;;;;;;;5.00;5.00;;;;;7.90;82.63;102072.88;5081457;27;46326;-61
2022/03/14 06:20:12;;;;;;;;;10.00;9.00;;;;;7.90;82.82;102071.13;5081261;27;45364;-65
2022/03/14 06:22:49;;;;;;;;;6.50;4.50;;;;;7.90;82.63;102078.03;5081478;27;45367;-65
2022/03/14 06:25:17;;;;;;;;;9.50;4.00;;;;;7.90;82.74;102075.44;5080856;27;45444;-60
2022/03/14 06:27:43;;;;;;;;;8.50;6.00;;;;;7.92;82.88;102078.91;5081385;27;47047;-60
2022/03/14 06:30:09;;;;;;;;;7.50;6.50;;;;;7.92;82.74;102074.59;5080490;27;45394;-60
2022/03/14 06:32:36;;;;;;;;;9.50;5.75;;;;;7.96;82.94;102080.66;5080977;27;45373;-61
2022/03/14 06:35:04;;;;;;;;;5.75;5.75;;;;;8.00;82.81;102094.47;5096766;27;45435;-60
2022/03/14 06:37:29;;;;;;;;;10.00;6.00;;;;;8.01;82.94;102088.44;5080814;27;46110;-60
2022/03/14 06:39:54;;;;;;;;;6.00;5.00;;;;;8.04;82.39;102097.09;5080789;27;45232;-60
2022/03/14 06:42:21;;;;;;;;;7.75;6.00;;;;;8.02;82.97;102111.75;5081383;27;45769;-61
2022/03/14 06:44:49;;;;;;;;;12.25;8.50;;;;;8.03;82.82;102120.41;5080885;27;45629;-62
2022/03/14 06:47:15;;;;;;;;;6.00;6.00;;;;;8.04;82.72;102127.31;5081163;27;47187;-60
2022/03/14 06:49:44;;;;;;;;;8.25;5.50;;;;;8.09;83.12;102129.03;5080779;27;45309;-61
2022/03/14 06:52:10;;;;;;;;;9.00;6.00;;;;;8.14;82.40;102135.09;5080232;27;45355;-60
2022/03/14 06:54:36;;;;;;;;;62.25;46.50;;;;;8.16;82.58;102140.28;5080106;27;45178;-60
2022/03/14 06:57:02;;;;;;;;;8.75;7.25;;;;;8.21;83.02;102144.66;5079706;27;46020;-54
2022/03/14 06:59:28;;;;;;;;;35.25;30.00;;;;;8.30;82.69;102146.41;5079528;27;45869;-56
2022/03/14 07:01:53;;;;;;;;;14.00;10.75;;;;;8.36;83.03;102148.19;5080566;27;45309;-55
2022/03/14 07:04:19;;;;;;;;;6.25;5.25;;;;;8.44;82.28;102144.78;5080534;27;45457;-55
2022/03/14 07:06:45;;;;;;;;;14.00;7.00;;;;;8.51;82.45;102154.28;5080402;27;46871;-55
2022/03/14 07:09:11;;;;;;;;;6.75;5.75;;;;;8.59;81.89;102162.09;5080146;27;45407;-55
2022/03/14 07:11:36;;;;;;;;;11.00;9.00;;;;;8.65;81.86;102162.13;5080148;27;45318;-59
2022/03/14 07:14:02;;;;;;;;;7.00;7.00;;;;;8.72;82.67;102176.81;5080045;27;45373;-58
2022/03/14 07:16:27;;;;;;;;;10.75;6.75;;;;;8.83;81.71;102171.69;5080477;27;46526;-60
2022/03/14 07:18:53;;;;;;;;;7.50;7.50;;;;;8.90;81.57;102190.72;5079756;27;45326;-58
2022/03/14 07:21:18;;;;;;;;;11.00;9.75;;;;;8.96;81.20;102188.97;5080522;27;45308;-58
2022/03/14 07:23:44;;;;;;;;;10.50;6.00;;;;;9.00;80.97;102190.72;5078472;27;45386;-58
2022/03/14 07:26:10;;;;;;;;;13.00;9.50;;;;;9.09;80.79;102189.88;5079653;27;46258;-58
2022/03/14 07:28:35;;;;;;;;;6.75;6.00;;;;;9.13;80.76;102186.44;5080073;27;45305;-58
2022/03/14 07:31:01;;;;;;;;;13.00;11.25;;;;;9.19;80.38;102196.81;5080221;27;45240;-59
2022/03/14 07:33:28;;;;;;;;;13.50;6.50;;;;;9.26;80.28;102200.28;5079635;28;45294;-58
2022/03/14 07:35:54;;;;;;;;;12.25;8.00;;;;;9.32;80.09;102214.13;5080179;27;46385;-58
2022/03/14 07:38:20;;;;;;;;;9.25;7.25;;;;;9.38;80.03;102214.13;5079843;27;45357;-59
2022/03/14 07:40:45;;;;;;;;;10.00;6.75;;;;;9.40;79.47;102215.00;5080437;27;45317;-59
2022/03/14 07:43:12;;;;;;;;;7.50;5.25;;;;;9.39;79.53;102218.44;5080141;27;45460;-58
2022/03/14 07:45:38;;;;;;;;;7.75;6.25;;;;;9.41;79.49;102213.25;5080205;27;47006;-58
2022/03/14 07:48:04;;;;;;;;;7.00;6.00;;;;;9.37;79.33;102224.50;5080073;27;45899;-58
2022/03/14 07:50:29;;;;;;;;;9.00;6.50;;;;;9.33;79.21;102234.03;5080096;27;45248;-58
2022/03/14 07:52:58;;;;;;;;;13.75;7.00;;;;;9.31;79.18;102240.06;5079495;27;45382;-58
2022/03/14 07:55:24;;;;;;;;;15.50;7.00;;;;;9.28;79.27;102256.50;5079666;27;46943;-59
2022/03/14 07:57:50;;;;;;;;;9.75;6.50;;;;;9.26;78.79;102258.22;5079506;27;45293;-59
2022/03/14 08:00:18;;;;;;;;;7.25;6.25;;;;;9.29;78.88;102260.81;5080063;27;45377;-59
2022/03/14 08:02:44;;;;;;;;;7.75;7.00;;;;;9.39;78.66;102269.47;5077106;27;45562;-59
2022/03/14 08:05:13;;;;;;;;;9.50;7.75;;;;;9.52;78.69;102272.97;5079570;28;45238;-59
2022/03/14 08:07:45;;;;;;;;;8.25;8.25;;;;;9.59;78.05;102264.31;5077520;27;45248;-59
2022/03/14 08:10:12;;;;;;;;;14.25;9.25;;;;;9.68;78.17;102269.53;5079829;27;45482;-59
2022/03/14 08:12:46;;;;;;;;;12.75;9.25;;;;;9.77;77.94;102262.59;5079430;27;45382;-58
2022/03/14 08:15:16;;;;;;;;;11.75;10.75;;;;;9.86;77.97;102258.28;5079583;27;47325;-59
2022/03/14 08:17:42;;;;;;;;;13.00;11.00;;;;;9.98;77.50;102271.25;5079962;27;45871;-59
2022/03/14 08:20:08;;;;;;;;;9.00;8.75;;;;;10.10;77.27;102275.59;5079775;27;45306;-58
2022/03/14 08:22:33;;;;;;;;;9.50;7.50;;;;;10.24;77.25;102282.53;5079680;27;45445;-58
2022/03/14 08:24:59;;;;;;;;;12.00;12.00;;;;;10.35;76.78;102288.56;5076261;27;45995;-58
2022/03/14 08:27:24;;;;;;;;;13.75;11.25;;;;;10.47;76.45;102287.69;5079306;27;45359;-59
2022/03/14 08:29:49;;;;;;;;;12.50;9.50;;;;;10.56;76.55;102290.25;5079760;27;45476;-59
2022/03/14 08:32:15;;;;;;;;;13.00;11.75;;;;;10.66;75.37;102289.38;5079134;27;45462;-59
2022/03/14 08:34:42;;;;;;;;;15.75;9.00;;;;;10.76;75.41;102290.19;5079186;28;46779;-59
2022/03/14 08:37:07;;;;;;;;;15.25;10.75;;;;;10.80;75.05;102291.03;5079176;27;45311;-59
2022/03/14 08:39:33;;;;;;;;;16.50;12.50;;;;;10.86;75.30;102291.91;5079608;27;45207;-59
2022/03/14 08:41:58;;;;;;;;;15.00;10.50;;;;;10.89;74.52;102293.63;5079343;27;45521;-59
2022/03/14 08:44:24;;;;;;;;;17.00;12.75;;;;;10.91;74.88;102303.16;5079405;27;46068;-59
2022/03/14 08:46:49;;;;;;;;;16.25;10.25;;;;;10.96;74.28;102298.78;5079227;27;45266;-59
2022/03/14 08:49:15;;;;;;;;;12.75;11.00;;;;;11.05;73.97;102305.72;5079434;27;45633;-59
2022/03/14 08:51:40;;;;;;;;;12.75;12.25;;;;;11.11;74.03;102304.81;5079114;27;45501;-59
2022/03/14 08:54:06;;;;;;;;;14.25;8.75;;;;;11.22;73.92;102319.50;5078865;27;46276;-60
2022/03/14 08:56:32;;;;;;;;;17.50;12.00;;;;;11.28;73.32;102316.88;5079160;27;45421;-59
2022/03/14 08:58:57;;;;;;;;;13.00;9.25;;;;;11.31;73.24;102315.97;5078885;27;45358;-60
2022/03/14 09:01:23;;;;;;;;;13.00;10.00;;;;;11.38;73.32;102322.88;5079055;27;45309;-59
2022/03/14 09:03:48;;;;;;;;;12.50;10.00;;;;;11.45;72.74;102316.78;5078894;27;46087;-59
2022/03/14 09:06:14;;;;;;;;;15.00;12.75;;;;;11.50;72.41;102320.22;5079007;27;45476;-62
2022/03/14 09:08:39;;;;;;;;;8.50;7.50;;;;;11.55;72.46;102322.78;5078952;27;45307;-59
2022/03/14 09:11:04;;;;;;;;;15.25;13.00;;;;;11.63;72.24;102322.75;5078989;27;45557;-59
2022/03/14 09:13:30;;;;;;;;;18.00;12.25;;;;;11.72;72.14;102327.88;5078960;27;46121;-59
2022/03/14 09:15:55;;;;;;;;;17.25;13.50;;;;;11.73;71.38;102330.47;5079108;27;45211;-59
2022/03/14 09:18:21;;;;;;;;;15.75;14.25;;;;;11.78;71.78;102333.03;5078965;28;45231;-60
2022/03/14 09:20:48;;;;;;;;;18.50;13.25;;;;;11.91;71.40;102331.25;5082353;27;45219;-59
2022/03/14 09:23:15;;;;;;;;;13.75;11.00;;;;;12.00;71.31;102331.16;5081919;27;46210;-59
2022/03/14 09:25:40;;;;;;;;;21.25;14.00;;;;;12.13;71.10;102322.38;5081837;27;45953;-59
2022/03/14 09:28:06;;;;;;;;;12.75;12.75;;;;;12.18;70.38;102337.09;5082584;27;45283;-59
2022/03/14 09:30:31;;;;;;;;;10.00;10.00;;;;;12.18;70.62;102336.22;5082074;27;45568;-59
2022/03/14 09:32:57;;;;;;;;;15.00;14.00;;;;;12.25;70.07;102337.94;5081866;27;46011;-59
2022/03/14 09:35:24;;;;;;;;;15.00;14.00;;;;;12.38;70.37;102343.88;5081895;27;45380;-59
2022/03/14 09:37:50;;;;;;;;;10.50;8.25;;;;;12.41;69.44;102355.16;5082267;27;45317;-59
2022/03/14 09:40:19;;;;;;;;;25.00;21.75;;;;;12.45;69.76;102342.97;5081613;27;45275;-59
2022/03/14 09:42:48;;;;;;;;;11.00;9.25;;;;;12.51;69.84;102340.28;5082211;27;46252;-59
2022/03/14 09:45:14;;;;;;;;;18.50;14.75;;;;;12.60;69.53;102348.00;5082103;27;45356;-60
2022/03/14 09:47:42;;;;;;;;;16.25;14.00;;;;;12.73;69.23;102349.63;5082118;27;45458;-60
2022/03/14 09:50:11;;;;;;;;;21.00;15.00;;;;;12.88;69.13;102345.13;5084455;27;45280;-60
2022/03/14 09:52:39;;;;;;;;;14.25;11.25;;;;;13.04;68.88;102342.31;5081397;27;47144;-59
2022/03/14 09:55:09;;;;;;;;;16.00;13.25;;;;;13.17;68.25;102342.16;5082118;27;45747;-60
2022/03/14 09:57:38;;;;;;;;;20.75;15.50;;;;;13.26;68.21;102349.91;5080733;28;45475;-59
2022/03/14 10:00:15;;;;;;;;;18.50;16.00;;;;;13.32;68.06;102350.69;5081667;27;45336;-59
2022/03/14 10:02:45;;;;;;;;;16.00;13.00;;;;;13.39;67.41;102360.16;5081672;27;45229;-59
2022/03/14 10:05:13;;;;;;;;;14.75;11.75;;;;;13.51;67.15;102353.06;5081778;27;45362;-59
2022/03/14 10:07:40;;;;;;;;;25.25;18.25;;;;;13.58;66.88;102355.53;5081517;27;45264;-60
2022/03/14 10:10:06;;;;;;;;;19.75;17.00;;;;;13.65;67.16;102362.44;5081592;27;45282;-59
2022/03/14 10:12:33;;;;;;;;;19.00;17.25;;;;;13.68;66.58;102359.78;5081171;27;45451;-60
2022/03/14 10:15:00;;;;;;;;;21.50;17.25;;;;;13.72;66.60;102367.56;5081824;27;45226;-60
2022/03/14 10:17:27;;;;;;;;;16.00;14.75;;;;;13.91;66.49;102363.78;5081357;28;45336;-60
2022/03/14 10:19:57;;;;;;;;;17.25;15.00;;;;;14.24;66.46;102359.78;5081494;27;45315;-59
2022/03/14 10:22:23;;;;;;;;;19.00;15.75;;;;;15.55;65.57;102359.84;5080996;27;46289;-60
2022/03/14 10:24:54;;;;;;;;;32.00;24.50;;;;;16.34;62.41;102357.97;5081105;27;45757;-60
2022/03/14 10:27:20;;;;;;;;;13.25;12.50;;;;;16.35;61.13;102356.22;5081508;27;45509;-60
2022/03/14 10:29:46;;;;;;;;;25.75;18.00;;;;;16.24;61.32;102359.13;5081356;27;45369;-60
2022/03/14 10:32:33;;;;;;;;;28.25;17.75;;;;;16.78;62.04;102362.97;5080715;27;46244;-60
2022/03/14 10:35:05;;;;;;;;;21.75;15.50;;;;;17.40;59.61;102371.69;5081246;27;45238;-60
2022/03/14 10:37:31;;;;;;;;;19.25;15.00;;;;;17.28;58.56;102370.28;5081129;27;45238;-60
2022/03/14 10:40:03;;;;;;;;;18.50;12.00;;;;;17.85;59.82;102371.22;5081170;27;45329;-60
2022/03/14 10:42:37;;;;;;;;;19.75;15.75;;;;;18.72;56.48;102377.06;5081166;27;46135;-58
2022/03/14 10:45:09;;;;;;;;;15.75;12.00;;;;;18.46;54.97;102371.81;5080992;27;45419;-60
2022/03/14 10:47:34;;;;;;;;;21.25;13.00;;;;;17.97;56.02;102375.22;5081314;27;45341;-60
2022/03/14 10:50:00;;;;;;;;;9.50;9.00;;;;;18.01;55.21;102379.47;5081017;27;45303;-60
2022/03/14 10:52:25;;;;;;;;;13.75;12.00;;;;;17.79;54.66;102376.66;5080882;27;45241;-60
2022/03/14 10:54:51;;;;;;;;;13.75;9.75;;;;;17.50;56.10;102359.13;5080726;27;45336;-60
2022/03/14 10:57:20;;;;;;;;;14.00;9.00;;;;;17.20;54.87;102368.78;5081028;27;45292;-60
2022/03/14 10:59:47;;;;;;;;;12.25;9.00;;;;;16.89;55.38;102367.03;5080742;27;45555;-60
2022/03/14 11:02:17;;;;;;;;;21.50;11.00;;;;;16.55;55.30;102372.28;5080494;27;47222;-60
2022/03/14 11:04:54;;;;;;;;;17.50;12.50;;;;;16.40;55.84;102368.28;5080812;27;45427;-60
2022/03/14 11:07:23;;;;;;;;;14.00;10.00;;;;;16.33;56.06;102369.38;5080163;27;45449;-60
2022/03/14 11:09:54;;;;;;;;;12.75;10.75;;;;;16.29;55.91;102374.72;5080193;27;45211;-60
2022/03/14 11:12:24;;;;;;;;;12.50;6.75;;;;;16.19;55.27;102373.22;5080023;27;46008;-60
2022/03/14 11:14:57;;;;;;;;;13.25;9.50;;;;;16.05;55.82;102382.31;5080816;27;45393;-60
2022/03/14 11:17:24;;;;;;;;;12.50;9.25;;;;;15.96;55.87;102379.03;5080359;27;45408;-60
2022/03/14 11:19:51;;;;;;;;;11.50;9.50;;;;;15.81;54.85;102373.25;5080523;27;45466;-60
2022/03/14 11:22:18;;;;;;;;;10.50;7.75;;;;;15.65;55.88;102371.03;5080058;27;45343;-60